Time;durP1;ratioP1;P1;durP2;ratioP2;P2;SDS_P1;SDS_P2;PMS_P1;PMS_P2;Temp;Humidity;BMP_temperature;BMP_pressure;BME280_temperature;BME280_humidity;BME280_pressure;Samples;Min_cycle;Max_cycle;Signal;HPM_P1;HPM_P2
2022/12/04 00:01:04;;;;;;;;;;;2.80;99.90;;;;;;7344997;19;114504;-70
2022/12/04 00:03:31;;;;;;;;;;;2.80;99.90;;;;;;7346398;19;108351;-70
2022/12/04 00:06:04;;;;;;;;;;;2.80;99.90;;;;;;7346011;19;108784;-70
2022/12/04 00:08:31;;;;;;;;;;;2.80;99.90;;;;;;7350673;19;111995;-69
2022/12/04 00:10:58;;;;;;;;;;;2.80;99.90;;;;;;7346185;19;109120;-69
2022/12/04 00:13:26;;;;;;;;;;;2.80;99.90;;;;;;7342993;19;110334;-69
2022/12/04 00:15:52;;;;;;;;;;;2.80;99.90;;;;;;7342787;19;108484;-70
2022/12/04 00:18:19;;;;;;;;;;;2.70;99.90;;;;;;7342069;19;108756;-69
2022/12/04 00:20:47;;;;;;;;;;;2.70;99.90;;;;;;7342604;19;110451;-69
2022/12/04 00:23:13;;;;;;;;;;;2.70;99.90;;;;;;7343762;19;108883;-70
2022/12/04 00:25:40;;;;;;;;;;;2.70;99.90;;;;;;7345958;19;109186;-70
2022/12/04 00:28:07;;;;;;;;;;;2.60;99.90;;;;;;7340224;19;110564;-69
2022/12/04 00:30:39;;;;;;;;;;;2.70;99.90;;;;;;7349268;19;109392;-69
2022/12/04 00:33:06;;;;;;;;;;;2.70;99.90;;;;;;7342008;19;111296;-70
2022/12/04 00:35:33;;;;;;;;;;;2.70;99.90;;;;;;7342428;19;108856;-67
2022/12/04 00:37:59;;;;;;;;;;;2.70;99.90;;;;;;7341272;19;109779;-69
2022/12/04 00:40:26;;;;;;;;;;;2.70;99.90;;;;;;7341922;19;110787;-69
2022/12/04 00:42:53;;;;;;;;;;;2.70;99.90;;;;;;7342521;19;108998;-69
2022/12/04 00:45:20;;;;;;;;;;;2.70;99.90;;;;;;7340135;19;110704;-67
2022/12/04 00:47:47;;;;;;;;;;;2.70;99.90;;;;;;7338683;19;109714;-70
2022/12/04 00:50:14;;;;;;;;;;;2.80;99.90;;;;;;7348654;19;108459;-70
2022/12/04 00:52:41;;;;;;;;;;;2.80;99.90;;;;;;7341414;19;110280;-69
2022/12/04 00:55:08;;;;;;;;;;;2.80;99.90;;;;;;7342468;19;108416;-70
2022/12/04 00:57:35;;;;;;;;;;;2.80;99.90;;;;;;7342166;19;109106;-69
2022/12/04 01:00:03;;;;;;;;;;;2.80;99.90;;;;;;7341966;19;110277;-70
2022/12/04 01:02:30;;;;;;;;;;;2.80;99.90;;;;;;7340813;19;109063;-69
2022/12/04 01:04:59;;;;;;;;;;;2.70;99.90;;;;;;7338691;19;111683;-69
2022/12/04 01:07:26;;;;;;;;;;;2.70;99.90;;;;;;7338180;19;110593;-69
2022/12/04 01:09:53;;;;;;;;;;;2.70;99.90;;;;;;7340640;19;108484;-69
2022/12/04 01:12:20;;;;;;;;;;;2.80;99.90;;;;;;7346020;19;109439;-69
2022/12/04 01:14:47;;;;;;;;;;;2.80;99.90;;;;;;7342304;19;108971;-70
2022/12/04 01:17:14;;;;;;;;;;;2.70;99.90;;;;;;7341591;19;109644;-69
2022/12/04 01:19:41;;;;;;;;;;;2.70;99.90;;;;;;7340224;19;110820;-69
2022/12/04 01:22:07;;;;;;;;;;;2.60;99.90;;;;;;7340829;19;108716;-70
2022/12/04 01:24:34;;;;;;;;;;;2.60;99.90;;;;;;7341309;19;109121;-69
2022/12/04 01:27:01;;;;;;;;;;;2.70;99.90;;;;;;7343048;19;110568;-70
2022/12/04 01:29:28;;;;;;;;;;;2.70;99.90;;;;;;7342984;19;108722;-69
2022/12/04 01:31:55;;;;;;;;;;;2.80;99.90;;;;;;7341003;19;109999;-69
2022/12/04 01:34:24;;;;;;;;;;;2.80;99.90;;;;;;7345073;19;110102;-69
2022/12/04 01:36:51;;;;;;;;;;;2.70;99.90;;;;;;7342222;19;108800;-69
2022/12/04 01:39:18;;;;;;;;;;;2.70;99.90;;;;;;7338916;19;110223;-69
2022/12/04 01:41:45;;;;;;;;;;;2.70;99.90;;;;;;7341281;19;108743;-69
2022/12/04 01:44:13;;;;;;;;;;;2.70;99.90;;;;;;7336669;19;111873;-70
2022/12/04 01:46:41;;;;;;;;;;;2.70;99.90;;;;;;7339865;19;114144;-70
2022/12/04 01:49:10;;;;;;;;;;;2.70;99.90;;;;;;7340418;19;109015;-70
2022/12/04 01:51:42;;;;;;;;;;;2.80;99.90;;;;;;7340627;19;108626;-69
2022/12/04 01:54:13;;;;;;;;;;;2.70;99.90;;;;;;7338849;19;109201;-69
2022/12/04 01:56:43;;;;;;;;;;;2.70;99.90;;;;;;7346657;19;108798;-70
2022/12/04 01:59:11;;;;;;;;;;;2.70;99.90;;;;;;7338889;19;110476;-70
2022/12/04 02:01:58;;;;;;;;;;;2.70;99.90;;;;;;7338306;19;108501;-70
2022/12/04 02:04:25;;;;;;;;;;;2.70;99.90;;;;;;7338917;19;109408;-69
2022/12/04 02:06:52;;;;;;;;;;;2.70;99.90;;;;;;7338582;19;110196;-69
2022/12/04 02:09:22;;;;;;;;;;;2.70;99.90;;;;;;7339039;19;108263;-70
2022/12/04 02:11:52;;;;;;;;;;;2.70;99.90;;;;;;7338610;19;108489;-69
2022/12/04 02:14:23;;;;;;;;;;;2.70;99.90;;;;;;7336425;19;128529;-67
2022/12/04 02:16:55;;;;;;;;;;;2.80;99.90;;;;;;7337776;19;109194;-69
2022/12/04 02:19:37;;;;;;;;;;;2.80;99.90;;;;;;7342784;19;109091;-70
2022/12/04 02:22:08;;;;;;;;;;;2.70;99.90;;;;;;7338805;19;108659;-69
2022/12/04 02:24:51;;;;;;;;;;;2.80;99.90;;;;;;7340448;19;112108;-69
2022/12/04 02:27:21;;;;;;;;;;;2.70;99.90;;;;;;7340208;19;113790;-70
2022/12/04 02:29:54;;;;;;;;;;;2.80;99.90;;;;;;7338163;19;108435;-70
2022/12/04 02:32:25;;;;;;;;;;;2.80;99.90;;;;;;7338361;19;108755;-67
2022/12/04 02:34:57;;;;;;;;;;;2.80;99.90;;;;;;7338185;19;109642;-70
2022/12/04 02:37:30;;;;;;;;;;;2.80;99.90;;;;;;7337563;19;108705;-68
2022/12/04 02:40:11;;;;;;;;;;;2.80;99.90;;;;;;7339294;19;109940;-68
2022/12/04 02:42:44;;;;;;;;;;;2.90;99.90;;;;;;7343204;19;111243;-68
2022/12/04 02:45:13;;;;;;;;;;;2.90;99.90;;;;;;7337256;19;109267;-68
2022/12/04 02:47:41;;;;;;;;;;;2.90;99.90;;;;;;7338813;19;109463;-68
2022/12/04 02:50:13;;;;;;;;;;;2.90;99.90;;;;;;7336848;19;109351;-68
2022/12/04 02:52:43;;;;;;;;;;;2.90;99.90;;;;;;7337786;19;108926;-68
2022/12/04 02:55:13;;;;;;;;;;;2.90;99.90;;;;;;7337024;19;109264;-67
2022/12/04 02:57:44;;;;;;;;;;;2.90;99.90;;;;;;7337274;19;108912;-67
2022/12/04 03:00:11;;;;;;;;;;;2.80;99.90;;;;;;7338000;19;109192;-67
2022/12/04 03:02:49;;;;;;;;;;;2.80;99.90;;;;;;7342428;19;111749;-68
2022/12/04 03:05:18;;;;;;;;;;;2.80;99.90;;;;;;7338009;19;111714;-68
2022/12/04 03:07:51;;;;;;;;;;;2.80;99.90;;;;;;7335751;19;110361;-67
2022/12/04 03:10:21;;;;;;;;;;;2.80;99.90;;;;;;7336823;19;108843;-67
2022/12/04 03:12:51;;;;;;;;;;;2.80;99.90;;;;;;7338509;19;109017;-67
2022/12/04 03:15:20;;;;;;;;;;;2.80;99.90;;;;;;7336756;19;110758;-67
2022/12/04 03:18:07;;;;;;;;;;;2.90;99.90;;;;;;7337439;19;108627;-67
2022/12/04 03:20:35;;;;;;;;;;;2.90;99.90;;;;;;7338227;19;109394;-68
2022/12/04 03:23:08;;;;;;;;;;;2.90;99.90;;;;;;7336296;19;111773;-67
2022/12/04 03:25:38;;;;;;;;;;;3.00;99.90;;;;;;7344709;19;108632;-68
2022/12/04 03:28:14;;;;;;;;;;;2.90;99.90;;;;;;7338199;19;110632;-67
2022/12/04 03:30:45;;;;;;;;;;;2.90;99.90;;;;;;7343253;19;114312;-68
2022/12/04 03:33:15;;;;;;;;;;;2.90;99.90;;;;;;7344514;19;108662;-68
2022/12/04 03:35:48;;;;;;;;;;;2.80;99.90;;;;;;7344020;19;110231;-68
2022/12/04 03:38:15;;;;;;;;;;;2.80;99.90;;;;;;7343505;19;108318;-68
2022/12/04 03:40:42;;;;;;;;;;;2.80;99.90;;;;;;7344616;19;110512;-68
2022/12/04 03:43:21;;;;;;;;;;;2.90;99.90;;;;;;7344018;19;109329;-68
2022/12/04 03:45:57;;;;;;;;;;;2.90;99.90;;;;;;7347144;19;108345;-68
2022/12/04 03:48:30;;;;;;;;;;;2.90;99.90;;;;;;7349366;19;110104;-67
2022/12/04 03:51:03;;;;;;;;;;;2.90;99.90;;;;;;7343669;19;108696;-68
2022/12/04 03:53:37;;;;;;;;;;;2.90;99.90;;;;;;7342732;19;108628;-67
2022/12/04 03:56:08;;;;;;;;;;;2.90;99.90;;;;;;7344470;19;109359;-68
2022/12/04 03:58:37;;;;;;;;;;;2.80;99.90;;;;;;7344367;19;110218;-67
2022/12/04 04:01:06;;;;;;;;;;;2.80;99.90;;;;;;7342957;19;109135;-67
2022/12/04 04:03:35;;;;;;;;;;;2.90;99.90;;;;;;7342012;19;110230;-67
2022/12/04 04:06:08;;;;;;;;;;;2.90;99.90;;;;;;7343811;19;109248;-68
2022/12/04 04:08:38;;;;;;;;;;;3.00;99.90;;;;;;7343986;19;109871;-67
2022/12/04 04:11:13;;;;;;;;;;;3.00;99.90;;;;;;7348778;19;110324;-67
2022/12/04 04:25:02;;;;;;;;;;;2.90;99.90;;;;;;7342752;19;109625;-68
2022/12/04 04:27:29;;;;;;;;;;;2.90;99.90;;;;;;7341844;19;108772;-68
2022/12/04 04:29:56;;;;;;;;;;;3.00;99.90;;;;;;7343320;19;108517;-68
2022/12/04 04:32:37;;;;;;;;;;;3.10;99.90;;;;;;7339787;19;109728;-68
2022/12/04 04:35:30;;;;;;;;;;;3.20;99.90;;;;;;7348698;19;109197;-68
2022/12/04 04:38:20;;;;;;;;;;;3.20;99.90;;;;;;7339715;19;110337;-68
2022/12/04 04:40:53;;;;;;;;;;;3.10;99.90;;;;;;7340946;19;108235;-68
2022/12/04 04:43:23;;;;;;;;;;;3.10;99.90;;;;;;7339824;19;111078;-68
2022/12/04 04:45:53;;;;;;;;;;;3.10;99.90;;;;;;7343550;19;111141;-68
2022/12/04 04:48:27;;;;;;;;;;;3.00;99.90;;;;;;7344530;19;108777;-68
2022/12/04 04:50:54;;;;;;;;;;;3.00;99.90;;;;;;7341824;19;108808;-68
2022/12/04 04:53:23;;;;;;;;;;;3.10;99.90;;;;;;7341616;19;110462;-68
2022/12/04 04:55:49;;;;;;;;;;;3.10;99.90;;;;;;7344508;19;108612;-68
2022/12/04 04:58:17;;;;;;;;;;;3.10;99.90;;;;;;7344138;19;109475;-68
2022/12/04 05:00:59;;;;;;;;;;;3.20;99.90;;;;;;7342625;19;108791;-68
2022/12/04 05:03:27;;;;;;;;;;;3.20;99.90;;;;;;7340841;19;109498;-68
2022/12/04 05:05:54;;;;;;;;;;;3.10;99.90;;;;;;7340499;19;109255;-68
2022/12/04 05:08:21;;;;;;;;;;;3.10;99.90;;;;;;7341657;19;108411;-68
2022/12/04 05:10:48;;;;;;;;;;;3.10;99.90;;;;;;7341670;19;109551;-68
2022/12/04 05:13:15;;;;;;;;;;;3.10;99.90;;;;;;7341201;19;110258;-68
2022/12/04 05:15:42;;;;;;;;;;;3.20;99.90;;;;;;7343875;19;108850;-68
2022/12/04 05:18:09;;;;;;;;;;;3.20;99.90;;;;;;7345843;19;109802;-68
2022/12/04 05:20:39;;;;;;;;;;;3.10;99.90;;;;;;7341677;19;108695;-68
2022/12/04 05:23:06;;;;;;;;;;;3.10;99.90;;;;;;7340497;19;114745;-68
2022/12/04 05:25:33;;;;;;;;;;;3.00;99.90;;;;;;7341638;19;110151;-68
2022/12/04 05:28:00;;;;;;;;;;;3.00;99.90;;;;;;7340954;19;108814;-68
2022/12/04 05:30:27;;;;;;;;;;;3.00;99.90;;;;;;7339056;19;108547;-68
2022/12/04 05:32:54;;;;;;;;;;;2.90;99.90;;;;;;7338654;19;110364;-68
2022/12/04 05:35:21;;;;;;;;;;;3.00;99.90;;;;;;7339914;19;109765;-68
2022/12/04 05:37:47;;;;;;;;;;;3.00;99.90;;;;;;7340361;19;111377;-68
2022/12/04 05:40:14;;;;;;;;;;;2.90;99.90;;;;;;7345161;19;110278;-68
2022/12/04 05:42:41;;;;;;;;;;;3.00;99.90;;;;;;7341092;19;108673;-68
2022/12/04 05:45:08;;;;;;;;;;;3.00;99.90;;;;;;7339076;19;109939;-68
2022/12/04 05:47:39;;;;;;;;;;;3.10;99.90;;;;;;7341782;19;108663;-68
2022/12/04 05:50:07;;;;;;;;;;;3.10;99.90;;;;;;7339312;19;109331;-68
2022/12/04 05:52:34;;;;;;;;;;;3.00;99.90;;;;;;7341320;19;110229;-68
2022/12/04 05:55:01;;;;;;;;;;;3.00;99.90;;;;;;7341621;19;108335;-68
2022/12/04 05:57:28;;;;;;;;;;;3.00;99.90;;;;;;7337717;19;109515;-68
2022/12/04 05:59:55;;;;;;;;;;;3.00;99.90;;;;;;7340443;19;109564;-68
2022/12/04 06:02:23;;;;;;;;;;;3.00;99.90;;;;;;7345534;19;108454;-68
2022/12/04 06:04:50;;;;;;;;;;;3.00;99.90;;;;;;7340630;19;110059;-68
2022/12/04 06:07:17;;;;;;;;;;;3.00;99.90;;;;;;7338293;19;108305;-68
2022/12/04 06:09:43;;;;;;;;;;;2.90;99.90;;;;;;7340625;19;109219;-68
2022/12/04 06:12:10;;;;;;;;;;;2.90;99.90;;;;;;7340472;19;110536;-68
2022/12/04 06:14:37;;;;;;;;;;;2.90;99.90;;;;;;7338509;19;108951;-68
2022/12/04 06:17:06;;;;;;;;;;;2.90;99.90;;;;;;7342881;19;108764;-68
2022/12/04 06:19:35;;;;;;;;;;;2.90;99.90;;;;;;7340872;19;110060;-68
2022/12/04 06:22:02;;;;;;;;;;;2.80;99.90;;;;;;7339650;19;108434;-68
2022/12/04 06:24:29;;;;;;;;;;;2.80;99.90;;;;;;7343955;19;109189;-68
2022/12/04 06:26:57;;;;;;;;;;;2.80;99.90;;;;;;7339943;19;114432;-70
2022/12/04 06:29:44;;;;;;;;;;;2.80;99.90;;;;;;7340676;19;111287;-68
2022/12/04 06:32:10;;;;;;;;;;;2.80;99.90;;;;;;7338593;19;113135;-68
2022/12/04 06:34:45;;;;;;;;;;;2.90;99.90;;;;;;7339228;19;109210;-68
2022/12/04 06:37:12;;;;;;;;;;;2.90;99.90;;;;;;7338909;19;109217;-68
2022/12/04 06:39:38;;;;;;;;;;;3.00;99.90;;;;;;7338802;19;111387;-68
2022/12/04 06:42:05;;;;;;;;;;;3.00;99.90;;;;;;7337190;19;108926;-68
2022/12/04 06:44:32;;;;;;;;;;;3.00;99.90;;;;;;7339643;19;109249;-68
2022/12/04 06:46:59;;;;;;;;;;;2.90;99.90;;;;;;7343249;19;110203;-68
2022/12/04 06:49:26;;;;;;;;;;;2.90;99.90;;;;;;7337928;19;109498;-68
2022/12/04 06:51:53;;;;;;;;;;;2.90;99.90;;;;;;7337639;19;112018;-68
2022/12/04 06:54:20;;;;;;;;;;;3.00;99.90;;;;;;7338240;19;108890;-68
2022/12/04 06:56:47;;;;;;;;;;;3.00;99.90;;;;;;7337737;19;109296;-68
2022/12/04 06:59:14;;;;;;;;;;;3.00;99.90;;;;;;7337368;19;110288;-68
2022/12/04 07:01:41;;;;;;;;;;;3.00;99.90;;;;;;7336362;19;114138;-68
2022/12/04 07:04:08;;;;;;;;;;;3.00;99.90;;;;;;7333896;19;109247;-68
2022/12/04 07:06:36;;;;;;;;;;;3.00;99.90;;;;;;7338212;19;109880;-68
2022/12/04 07:09:08;;;;;;;;;;;3.00;99.90;;;;;;7342932;19;109039;-68
2022/12/04 07:11:35;;;;;;;;;;;3.00;99.90;;;;;;7338771;19;110124;-68
2022/12/04 07:14:02;;;;;;;;;;;3.00;99.90;;;;;;7336756;19;108356;-68
2022/12/04 07:16:30;;;;;;;;;;;2.90;99.90;;;;;;7336906;19;108918;-68
2022/12/04 07:19:05;;;;;;;;;;;2.80;99.90;;;;;;7337042;19;110579;-68
2022/12/04 07:21:33;;;;;;;;;;;2.80;99.90;;;;;;7338316;19;110144;-68
2022/12/04 07:24:00;;;;;;;;;;;2.80;99.90;;;;;;7336663;19;109037;-68
2022/12/04 07:26:28;;;;;;;;;;;2.90;99.90;;;;;;7337159;19;111361;-68
2022/12/04 07:28:55;;;;;;;;;;;2.90;99.90;;;;;;7342367;19;108715;-68
2022/12/04 07:31:23;;;;;;;;;;;3.00;99.90;;;;;;7335337;19;110348;-68
2022/12/04 07:33:53;;;;;;;;;;;3.00;99.90;;;;;;7337198;19;108560;-68
2022/12/04 07:36:21;;;;;;;;;;;3.00;99.90;;;;;;7334007;19;112471;-68
2022/12/04 07:38:48;;;;;;;;;;;2.90;99.90;;;;;;7336870;19;112740;-68
2022/12/04 07:41:15;;;;;;;;;;;2.90;99.90;;;;;;7336616;19;108773;-68
2022/12/04 07:43:42;;;;;;;;;;;2.90;99.90;;;;;;7337736;19;109339;-68
2022/12/04 07:46:10;;;;;;;;;;;2.90;99.90;;;;;;7334029;19;110228;-68
2022/12/04 07:48:37;;;;;;;;;;;2.90;99.90;;;;;;7336751;19;108955;-67
2022/12/04 07:51:11;;;;;;;;;;;2.90;99.90;;;;;;7342412;19;109774;-68
2022/12/04 07:53:38;;;;;;;;;;;2.90;99.90;;;;;;7333149;19;109617;-68
2022/12/04 07:56:06;;;;;;;;;;;3.00;99.90;;;;;;7336475;19;109111;-67
2022/12/04 07:58:33;;;;;;;;;;;3.00;99.90;;;;;;7337885;19;111310;-67
2022/12/04 08:01:11;;;;;;;;;;;3.10;99.90;;;;;;7335655;19;108496;-68
2022/12/04 08:03:39;;;;;;;;;;;3.10;99.90;;;;;;7336715;19;109523;-68
2022/12/04 08:06:13;;;;;;;;;;;3.10;99.90;;;;;;7335167;19;109038;-68
2022/12/04 08:08:40;;;;;;;;;;;3.00;99.90;;;;;;7334967;19;108452;-68
2022/12/04 08:11:07;;;;;;;;;;;3.00;99.90;;;;;;7334718;19;109453;-68
2022/12/04 08:13:34;;;;;;;;;;;2.90;99.90;;;;;;7343087;19;112034;-68
2022/12/04 08:16:02;;;;;;;;;;;2.90;99.90;;;;;;7338206;19;109325;-67
2022/12/04 08:18:29;;;;;;;;;;;2.90;99.90;;;;;;7340942;19;110611;-68
2022/12/04 08:21:03;;;;;;;;;;;3.00;99.90;;;;;;7342552;19;110433;-68
2022/12/04 08:23:30;;;;;;;;;;;3.20;99.90;;;;;;7341523;19;109037;-67
2022/12/04 08:25:58;;;;;;;;;;;3.20;99.90;;;;;;7342738;19;110146;-68
2022/12/04 08:28:25;;;;;;;;;;;3.30;99.90;;;;;;7343648;19;108436;-68
2022/12/04 08:30:52;;;;;;;;;;;3.30;99.90;;;;;;7342916;19;109333;-68
2022/12/04 08:33:19;;;;;;;;;;;3.30;99.90;;;;;;7341005;19;109185;-67
2022/12/04 08:35:46;;;;;;;;;;;3.30;99.90;;;;;;7347732;19;108592;-68
2022/12/04 08:38:13;;;;;;;;;;;3.30;99.90;;;;;;7337128;19;109647;-68
2022/12/04 08:40:39;;;;;;;;;;;3.40;99.90;;;;;;7341297;19;109778;-68
2022/12/04 08:43:06;;;;;;;;;;;3.50;99.90;;;;;;7342209;19;109509;-68
2022/12/04 08:45:33;;;;;;;;;;;3.50;99.90;;;;;;7343255;19;110994;-68
2022/12/04 08:48:01;;;;;;;;;;;3.40;99.90;;;;;;7342566;19;109027;-67
2022/12/04 08:50:27;;;;;;;;;;;3.50;99.90;;;;;;7340781;19;108449;-68
2022/12/04 08:52:54;;;;;;;;;;;3.50;99.90;;;;;;7339890;19;110666;-67
2022/12/04 08:55:21;;;;;;;;;;;3.40;99.90;;;;;;7342994;19;108808;-67
2022/12/04 08:57:49;;;;;;;;;;;3.40;99.90;;;;;;7348821;19;108303;-68
2022/12/04 09:00:16;;;;;;;;;;;3.50;99.90;;;;;;7341875;19;108399;-68
2022/12/04 09:02:43;;;;;;;;;;;3.50;99.90;;;;;;7341931;19;109142;-68
2022/12/04 09:05:10;;;;;;;;;;;3.40;99.90;;;;;;7340200;19;110068;-68
2022/12/04 09:07:37;;;;;;;;;;;3.40;99.90;;;;;;7340914;19;109034;-68
2022/12/04 09:10:05;;;;;;;;;;;3.50;99.90;;;;;;7339938;19;110606;-68
2022/12/04 09:12:32;;;;;;;;;;;3.50;99.90;;;;;;7338895;19;110288;-69
2022/12/04 09:14:59;;;;;;;;;;;3.60;99.90;;;;;;7340223;19;108618;-68
2022/12/04 09:17:26;;;;;;;;;;;3.60;99.90;;;;;;7344476;19;109230;-68
2022/12/04 09:19:53;;;;;;;;;;;3.60;99.90;;;;;;7339637;19;109587;-68
2022/12/04 09:22:26;;;;;;;;;;;3.70;99.90;;;;;;7339199;19;108938;-67
2022/12/04 09:25:13;;;;;;;;;;;3.60;99.90;;;;;;7337351;19;112044;-70
2022/12/04 09:27:43;;;;;;;;;;;3.60;99.90;;;;;;7339750;19;108700;-68
2022/12/04 09:30:11;;;;;;;;;;;3.60;99.90;;;;;;7341926;19;108800;-68
2022/12/04 09:32:38;;;;;;;;;;;3.60;99.90;;;;;;7341344;19;110416;-69
2022/12/04 09:35:05;;;;;;;;;;;3.60;99.90;;;;;;7339443;19;108536;-69
2022/12/04 09:37:32;;;;;;;;;;;3.60;99.90;;;;;;7339912;19;109074;-68
2022/12/04 09:39:59;;;;;;;;;;;3.60;99.90;;;;;;7344164;19;110082;-69
2022/12/04 09:42:33;;;;;;;;;;;3.50;99.90;;;;;;7339355;19;110659;-68
2022/12/04 09:45:03;;;;;;;;;;;3.50;99.90;;;;;;7339859;19;110283;-69
2022/12/04 09:47:32;;;;;;;;;;;3.50;99.90;;;;;;7339903;19;109359;-69
2022/12/04 09:50:11;;;;;;;;;;;3.50;99.90;;;;;;7340050;19;108744;-70
2022/12/04 09:52:55;;;;;;;;;;;3.60;99.90;;;;;;7339958;19;110887;-68
2022/12/04 09:55:21;;;;;;;;;;;3.70;99.90;;;;;;7340299;19;112898;-68
2022/12/04 09:57:50;;;;;;;;;;;3.70;99.90;;;;;;7341244;19;109446;-68
2022/12/04 10:00:18;;;;;;;;;;;3.70;99.90;;;;;;7339452;19;110488;-68
2022/12/04 10:02:53;;;;;;;;;;;3.60;99.90;;;;;;7347204;19;108363;-68
2022/12/04 10:05:26;;;;;;;;;;;3.60;99.90;;;;;;7340134;19;110524;-68
2022/12/04 10:07:55;;;;;;;;;;;3.60;99.90;;;;;;7340763;19;110939;-68
2022/12/04 10:10:22;;;;;;;;;;;3.50;99.90;;;;;;7338997;19;109124;-68
2022/12/04 10:13:08;;;;;;;;;;;3.50;99.90;;;;;;7341016;19;110524;-75
2022/12/04 10:15:35;;;;;;;;;;;3.50;99.90;;;;;;7340497;19;108752;-76
2022/12/04 10:18:07;;;;;;;;;;;3.50;99.90;;;;;;7341751;19;109191;-74
2022/12/04 10:20:34;;;;;;;;;;;3.60;99.90;;;;;;7339940;19;110622;-75
2022/12/04 10:23:30;;;;;;;;;;;3.60;99.90;;;;;;7339937;19;109185;-76
2022/12/04 10:25:58;;;;;;;;;;;3.70;99.90;;;;;;7343376;19;109364;-72
2022/12/04 10:28:25;;;;;;;;;;;3.70;99.90;;;;;;7339884;19;108396;-73
2022/12/04 10:30:54;;;;;;;;;;;3.80;99.90;;;;;;7339094;19;110571;-73
2022/12/04 10:33:38;;;;;;;;;;;3.80;99.90;;;;;;7338138;19;109126;-77
2022/12/04 10:36:06;;;;;;;;;;;3.80;99.90;;;;;;7336920;19;108669;-68
2022/12/04 10:38:32;;;;;;;;;;;3.80;99.90;;;;;;7333528;19;109258;-71
2022/12/04 10:41:18;;;;;;;;;;;3.90;99.90;;;;;;7339981;19;110836;-68
2022/12/04 10:43:46;;;;;;;;;;;3.80;99.90;;;;;;7339056;19;108755;-68
2022/12/04 10:46:14;;;;;;;;;;;3.80;99.90;;;;;;7337230;19;110248;-68
2022/12/04 10:48:42;;;;;;;;;;;3.90;99.90;;;;;;7342960;19;109831;-68
2022/12/04 10:51:16;;;;;;;;;;;3.90;99.90;;;;;;7338362;19;110487;-68
2022/12/04 10:53:44;;;;;;;;;;;3.90;99.90;;;;;;7337376;19;111481;-68
2022/12/04 10:56:18;;;;;;;;;;;4.00;99.90;;;;;;7338798;19;108998;-68
2022/12/04 10:58:55;;;;;;;;;;;4.00;99.90;;;;;;7339376;19;109178;-70
2022/12/04 11:01:22;;;;;;;;;;;4.00;99.90;;;;;;7337872;19;110284;-67
2022/12/04 11:03:57;;;;;;;;;;;4.10;99.90;;;;;;7336274;19;108550;-67
2022/12/04 11:06:25;;;;;;;;;;;4.20;99.90;;;;;;7337448;19;109344;-67
2022/12/04 11:08:53;;;;;;;;;;;4.30;99.90;;;;;;7336686;19;111374;-67
2022/12/04 11:11:24;;;;;;;;;;;4.30;99.90;;;;;;7342553;19;109253;-67
2022/12/04 11:14:20;;;;;;;;;;;4.30;99.90;;;;;;7339164;19;112074;-67
2022/12/04 11:16:49;;;;;;;;;;;4.30;99.90;;;;;;7337733;19;108406;-67
2022/12/04 11:19:18;;;;;;;;;;;4.40;99.90;;;;;;7338534;19;108722;-68
2022/12/04 11:21:46;;;;;;;;;;;4.40;99.90;;;;;;7325666;19;110185;-67
2022/12/04 11:24:23;;;;;;;;;;;4.30;99.90;;;;;;7328379;19;109017;-67
2022/12/04 11:26:51;;;;;;;;;;;4.30;99.90;;;;;;7337323;19;109820;-67
2022/12/04 11:29:19;;;;;;;;;;;4.40;99.90;;;;;;7334707;19;110493;-69
2022/12/04 11:31:47;;;;;;;;;;;4.40;99.90;;;;;;7343578;19;108815;-68
2022/12/04 11:34:18;;;;;;;;;;;4.30;99.90;;;;;;7336188;19;110263;-68
2022/12/04 11:36:48;;;;;;;;;;;4.20;99.90;;;;;;7336816;19;109030;-68
2022/12/04 11:39:18;;;;;;;;;;;4.10;99.90;;;;;;7337196;19;109215;-68
2022/12/04 11:41:45;;;;;;;;;;;4.10;99.90;;;;;;7338113;19;110023;-68
2022/12/04 11:44:21;;;;;;;;;;;4.00;99.90;;;;;;7335185;19;108863;-68
2022/12/04 11:46:52;;;;;;;;;;;4.10;99.90;;;;;;7335319;19;109214;-68
2022/12/04 11:49:23;;;;;;;;;;;4.10;99.90;;;;;;7335249;19;110657;-68
2022/12/04 11:52:08;;;;;;;;;;;4.10;99.90;;;;;;7342795;19;110619;-68
2022/12/04 11:54:52;;;;;;;;;;;4.10;99.90;;;;;;7348935;19;109344;-68
2022/12/04 11:57:27;;;;;;;;;;;4.20;99.90;;;;;;7346623;19;108490;-68
2022/12/04 12:00:02;;;;;;;;;;;4.20;99.90;;;;;;7343393;19;108858;-68
2022/12/04 12:02:29;;;;;;;;;;;4.20;99.90;;;;;;7341288;19;109318;-68
2022/12/04 12:05:02;;;;;;;;;;;4.20;99.90;;;;;;7343186;19;112691;-68
2022/12/04 12:07:31;;;;;;;;;;;4.10;99.90;;;;;;7342100;19;109189;-68
2022/12/04 12:10:02;;;;;;;;;;;4.10;99.90;;;;;;7341983;19;109551;-68
2022/12/04 12:12:38;;;;;;;;;;;4.10;99.90;;;;;;7342232;19;109407;-68
2022/12/04 12:15:18;;;;;;;;;;;4.00;99.90;;;;;;7343310;19;109380;-68
2022/12/04 12:18:04;;;;;;;;;;;3.90;99.90;;;;;;7348265;19;109712;-68
2022/12/04 12:20:34;;;;;;;;;;;3.80;99.90;;;;;;7344440;19;109393;-68
2022/12/04 12:23:07;;;;;;;;;;;3.80;99.90;;;;;;7342761;19;110832;-68
2022/12/04 12:25:40;;;;;;;;;;;3.90;99.90;;;;;;7343156;19;108881;-68
2022/12/04 12:28:15;;;;;;;;;;;4.00;99.90;;;;;;7340165;19;110172;-68
2022/12/04 12:30:42;;;;;;;;;;;4.00;99.90;;;;;;7341000;19;109323;-68
2022/12/04 12:33:21;;;;;;;;;;;4.00;99.90;;;;;;7340225;19;108409;-68
2022/12/04 12:35:50;;;;;;;;;;;3.90;99.90;;;;;;7342664;19;108868;-68
2022/12/04 12:38:20;;;;;;;;;;;3.90;99.90;;;;;;7342078;19;109622;-69
2022/12/04 12:40:54;;;;;;;;;;;3.90;99.90;;;;;;7349087;19;108700;-68
2022/12/04 12:43:29;;;;;;;;;;;3.90;99.90;;;;;;7342009;19;109251;-68
2022/12/04 12:46:15;;;;;;;;;;;3.90;99.90;;;;;;7342919;19;108897;-69
2022/12/04 12:48:46;;;;;;;;;;;3.90;99.90;;;;;;7343086;19;109109;-68
2022/12/04 12:51:19;;;;;;;;;;;3.90;99.90;;;;;;7341895;19;110244;-68
2022/12/04 12:54:00;;;;;;;;;;;3.80;99.90;;;;;;7340805;19;108694;-68
2022/12/04 12:56:34;;;;;;;;;;;3.80;99.90;;;;;;7340608;19;109245;-68
2022/12/04 12:59:02;;;;;;;;;;;3.70;99.90;;;;;;7341304;19;110057;-68
2022/12/04 13:01:35;;;;;;;;;;;3.70;99.90;;;;;;7341056;19;108524;-69
2022/12/04 13:04:08;;;;;;;;;;;3.60;99.90;;;;;;7347955;19;109204;-68
2022/12/04 13:06:37;;;;;;;;;;;3.60;99.90;;;;;;7341109;19;108587;-68
2022/12/04 13:09:05;;;;;;;;;;;3.60;99.90;;;;;;7342061;19;108314;-68
2022/12/04 13:11:32;;;;;;;;;;;3.50;99.90;;;;;;7341068;19;111170;-68
2022/12/04 13:14:02;;;;;;;;;;;3.50;99.90;;;;;;7344757;19;108647;-68
2022/12/04 13:16:32;;;;;;;;;;;3.50;99.90;;;;;;7340414;19;109158;-69
2022/12/04 13:19:10;;;;;;;;;;;3.50;99.90;;;;;;7337348;19;110302;-69
2022/12/04 13:22:03;;;;;;;;;;;3.50;99.90;;;;;;7341044;19;108363;-68
2022/12/04 13:24:38;;;;;;;;;;;3.50;99.90;;;;;;7337304;19;108717;-69
2022/12/04 13:27:13;;;;;;;;;;;3.50;99.90;;;;;;7345503;19;110208;-68
2022/12/04 13:29:58;;;;;;;;;;;3.60;99.90;;;;;;7340304;19;109924;-68
2022/12/04 13:32:51;;;;;;;;;;;3.70;99.90;;;;;;7337554;19;109197;-69
2022/12/04 13:35:25;;;;;;;;;;;3.70;99.90;;;;;;7336588;19;109234;-69
2022/12/04 13:38:07;;;;;;;;;;;3.80;99.90;;;;;;7339204;19;109773;-68
2022/12/04 13:40:34;;;;;;;;;;;3.80;99.90;;;;;;7338861;19;110038;-68
2022/12/04 13:43:19;;;;;;;;;;;3.90;99.90;;;;;;7342278;19;109037;-68
2022/12/04 13:45:48;;;;;;;;;;;4.00;99.90;;;;;;7339592;19;109272;-68
2022/12/04 13:48:25;;;;;;;;;;;4.00;99.90;;;;;;7344141;19;110187;-68
2022/12/04 13:50:59;;;;;;;;;;;4.00;99.90;;;;;;7337595;19;108535;-68
2022/12/04 13:53:31;;;;;;;;;;;4.10;99.90;;;;;;7338117;19;109659;-68
2022/12/04 13:55:58;;;;;;;;;;;4.10;99.90;;;;;;7340049;19;109282;-68
2022/12/04 13:58:34;;;;;;;;;;;4.10;99.90;;;;;;7338584;19;108431;-68
2022/12/04 14:01:11;;;;;;;;;;;4.10;99.90;;;;;;7338046;19;110190;-68
2022/12/04 14:03:49;;;;;;;;;;;4.10;99.90;;;;;;7339600;19;109308;-68
2022/12/04 14:06:20;;;;;;;;;;;4.10;99.90;;;;;;7339335;19;113376;-68
2022/12/04 14:08:53;;;;;;;;;;;4.00;99.90;;;;;;7338489;19;110146;-68
2022/12/04 14:11:22;;;;;;;;;;;3.90;99.90;;;;;;7343692;19;108714;-68
2022/12/04 14:13:51;;;;;;;;;;;3.80;99.90;;;;;;7337559;19;110321;-68
2022/12/04 14:16:38;;;;;;;;;;;3.80;99.90;;;;;;7339290;19;109718;-68
2022/12/04 14:19:06;;;;;;;;;;;3.90;99.90;;;;;;7337048;19;109746;-68
2022/12/04 14:21:40;;;;;;;;;;;4.00;99.90;;;;;;7340153;19;109262;-68
2022/12/04 14:24:26;;;;;;;;;;;3.90;99.90;;;;;;7337025;19;108636;-69
2022/12/04 14:26:52;;;;;;;;;;;3.90;99.90;;;;;;7338380;19;109062;-68
2022/12/04 14:29:37;;;;;;;;;;;4.00;99.90;;;;;;7337749;19;113672;-68
2022/12/04 14:32:09;;;;;;;;;;;4.00;99.90;;;;;;7337741;19;110183;-68
2022/12/04 14:34:36;;;;;;;;;;;4.00;99.90;;;;;;7342995;19;109141;-68
2022/12/04 14:37:04;;;;;;;;;;;4.00;99.90;;;;;;7339246;19;110022;-68
2022/12/04 14:39:36;;;;;;;;;;;3.90;99.90;;;;;;7337029;19;108686;-68
2022/12/04 14:42:11;;;;;;;;;;;3.90;99.90;;;;;;7338704;19;110220;-68
2022/12/04 14:44:38;;;;;;;;;;;3.90;99.90;;;;;;7340241;19;108623;-68
2022/12/04 14:47:18;;;;;;;;;;;4.00;99.90;;;;;;7336282;19;109117;-69